KBPT/BPT METAR and TAF weather

Enter ICAO airport designator
Station Type Date Time Source
KBPT METAR 2020/12/05 05:53 UTC NOAA

KBPT 050553Z AUTO 05003KT 10SM CLR 06/05 A3025 RMK AO2 SLP242 T00610050 10100 20056 401440050 50003


Station Type Date Time Source
KBPT Decoded METAR 2020/12/05 05:53 UTC NOAA

SOUTHEAST TEXAS RGNL AIRPORT, TX, United States (KBPT) 29-95N 094-08W 5M
Dec 05, 2020 - 12:53 AM EST / 2020.12.05 0553 UTC
Wind: from the NE (050 degrees) at 3 MPH (3 KT):0
Visibility: 10 mile(s):0
Sky conditions: clear
Temperature: 43.0 F (6.1 C)
Dew Point: 41.0 F (5.0 C)
Relative Humidity: 92%
Pressure (altimeter): 30.25 in. Hg (1024 hPa)
Pressure tendency: 0.01 inches (0.3 hPa) higher than three hours ago
ob: KBPT 050553Z AUTO 05003KT 10SM CLR 06/05 A3025 RMK AO2 SLP242 T00610050 10100 20056 401440050 50003
cycle: 6

Station Type Date Time Source
KBPT TAF 2020/12/05 06:33 UTC NOAA

TAF KBPT 050530Z 0506/0606 VRB03KT P6SM FEW200
TEMPO 0510/0514 5SM BR
FM051400 05008KT P6SM FEW015 BKN100
FM051900 VRB04KT P6SM BKN100
FM060200 33004KT P6SM VCSH BKN050

Example: see airport list